Time;durP1;ratioP1;P1;durP2;ratioP2;P2;SDS_P1;SDS_P2;PMS_P1;PMS_P2;Temp;Humidity;BMP_temperature;BMP_pressure;BME280_temperature;BME280_humidity;BME280_pressure;Samples;Min_cycle;Max_cycle;Signal;HPM_P1;HPM_P2
2022/12/07 00:01:40;;;;;;;12.50;3.10;;;;;;;4.20;100.00;102007.16;5070531;28;20047;-76
2022/12/07 00:04:07;;;;;;;9.07;2.97;;;;;;;4.15;100.00;102013.94;5070317;28;20032;-76
2022/12/07 00:06:45;;;;;;;13.25;3.03;;;;;;;4.13;100.00;102011.41;5059584;28;20040;-75
2022/12/07 00:09:14;;;;;;;11.18;3.22;;;;;;;4.16;100.00;102015.69;5057855;28;20514;-75
2022/12/07 00:11:40;;;;;;;11.60;3.20;;;;;;;4.09;100.00;102009.91;5071647;28;20060;-76
2022/12/07 00:14:09;;;;;;;18.23;4.32;;;;;;;4.10;100.00;102018.88;5070501;28;20064;-76
2022/12/07 00:16:35;;;;;;;11.05;4.28;;;;;;;4.07;100.00;102008.31;5065777;28;20131;-76
2022/12/07 00:19:01;;;;;;;9.25;3.70;;;;;;;4.06;100.00;102006.59;5069491;28;20134;-77
2022/12/07 00:21:29;;;;;;;13.10;3.63;;;;;;;4.00;100.00;102001.69;5061760;28;20515;-74
2022/12/07 00:23:56;;;;;;;10.80;3.50;;;;;;;3.97;100.00;102000.09;5060500;28;20380;-77
2022/12/07 00:26:23;;;;;;;;;;;;;;;3.93;100.00;102006.75;5073683;28;20121;-77
2022/12/07 00:28:50;;;;;;;8.45;2.83;;;;;;;3.97;100.00;102008.22;5066823;28;20321;-76
2022/12/07 00:31:18;;;;;;;12.70;3.13;;;;;;;4.12;100.00;102017.78;5064240;28;20078;-76
2022/12/07 00:33:43;;;;;;;12.13;2.95;;;;;;;4.15;100.00;102012.13;5064900;28;20059;-77
2022/12/07 00:36:11;;;;;;;6.88;2.50;;;;;;;4.29;100.00;101991.97;5066599;28;20447;-77
2022/12/07 00:38:38;;;;;;;5.70;2.53;;;;;;;4.32;100.00;101992.56;5063165;28;20044;-76
2022/12/07 00:41:07;;;;;;;6.25;1.88;;;;;;;4.28;100.00;101985.69;5065340;28;20041;-78
2022/12/07 00:43:33;;;;;;;14.15;2.10;;;;;;;4.28;100.00;101991.09;5069181;28;20040;-77
2022/12/07 00:45:59;;;;;;;4.60;2.38;;;;;;;4.24;100.00;101988.78;5067162;28;20377;-77
2022/12/07 00:48:24;;;;;;;6.28;1.80;;;;;;;4.18;100.00;101989.31;5070034;28;20058;-77
2022/12/07 00:50:50;;;;;;;7.15;2.25;;;;;;;4.05;100.00;101984.03;5066606;28;20025;-78
2022/12/07 00:53:16;;;;;;;8.35;2.10;;;;;;;3.94;100.00;101983.22;5066296;28;20038;-76
2022/12/07 00:55:42;;;;;;;4.30;2.33;;;;;;;3.82;100.00;101993.22;5061149;28;20086;-76
2022/12/07 00:58:07;;;;;;;11.18;3.08;;;;;;;3.69;100.00;101992.50;5063759;28;20037;-77
2022/12/07 01:00:35;;;;;;;5.28;2.10;;;;;;;3.55;100.00;101991.91;5065103;28;20371;-76
2022/12/07 01:03:00;;;;;;;9.68;1.90;;;;;;;3.41;100.00;101981.31;5056101;28;20028;-75
2022/12/07 01:05:26;;;;;;;3.40;1.85;;;;;;;3.29;100.00;101985.91;5062152;28;20044;-76
2022/12/07 01:07:52;;;;;;;5.25;2.08;;;;;;;3.20;100.00;101988.47;5065825;28;20444;-77
2022/12/07 01:10:17;;;;;;;5.40;2.45;;;;;;;3.08;100.00;101989.44;5058149;28;20055;-76
2022/12/07 01:12:43;;;;;;;9.35;2.55;;;;;;;3.00;100.00;101994.59;5065919;28;20059;-77
2022/12/07 01:15:08;;;;;;;8.02;3.55;;;;;;;3.00;100.00;101998.16;5061080;28;20392;-75
2022/12/07 01:17:34;;;;;;;15.40;4.07;;;;;;;3.00;100.00;101991.91;5059942;28;20025;-76
2022/12/07 01:20:00;;;;;;;9.52;3.85;;;;;;;3.02;100.00;101989.94;5063254;28;20020;-76
2022/12/07 01:22:26;;;;;;;9.23;4.18;;;;;;;3.06;100.00;101994.13;5064472;28;20021;-75
2022/12/07 01:24:51;;;;;;;6.53;3.47;;;;;;;3.01;100.00;101990.91;5057916;28;20020;-76
2022/12/07 01:27:16;;;;;;;5.95;3.03;;;;;;;3.03;100.00;101991.63;5058965;28;20043;-76
2022/12/07 01:29:42;;;;;;;9.68;3.15;;;;;;;3.06;100.00;101986.00;5061670;28;20021;-76
2022/12/07 01:32:07;;;;;;;9.02;3.65;;;;;;;3.07;100.00;101983.19;5061992;28;20422;-75
2022/12/07 01:34:33;;;;;;;5.00;2.47;;;;;;;3.09;100.00;101986.63;5064325;28;20055;-74
2022/12/07 01:36:58;;;;;;;8.13;3.47;;;;;;;3.13;100.00;101989.94;5050511;28;20040;-76
2022/12/07 01:39:23;;;;;;;9.60;3.47;;;;;;;3.24;100.00;101992.66;5061394;28;20025;-75
2022/12/07 01:41:49;;;;;;;8.15;3.63;;;;;;;3.30;100.00;102008.41;5064978;28;20101;-76
2022/12/07 01:44:24;;;;;;;13.80;4.90;;;;;;;3.28;100.00;102002.25;5063365;28;20131;-76
2022/12/07 01:46:50;;;;;;;12.10;3.38;;;;;;;3.22;100.00;102000.03;5075104;28;20040;-75
2022/12/07 01:49:21;;;;;;;7.35;3.15;;;;;;;3.14;100.00;101994.34;5064546;28;20116;-76
2022/12/07 01:51:48;;;;;;;11.25;3.08;;;;;;;3.15;100.00;102006.94;5060707;28;20037;-76
2022/12/07 01:54:16;;;;;;;8.75;3.00;;;;;;;3.13;100.00;102001.63;5066142;28;20039;-77
2022/12/07 01:56:51;;;;;;;6.10;2.70;;;;;;;3.09;100.00;101993.84;5062522;28;20115;-77
2022/12/07 01:59:19;;;;;;;7.80;2.80;;;;;;;3.05;100.00;101989.69;5062784;28;20448;-75
2022/12/07 02:01:45;;;;;;;10.38;3.35;;;;;;;3.04;100.00;101987.97;5061688;28;20054;-77
2022/12/07 02:04:11;;;;;;;7.15;3.40;;;;;;;2.99;100.00;101985.63;5060966;28;20028;-77
2022/12/07 02:06:38;;;;;;;6.80;3.50;;;;;;;2.93;100.00;101980.69;5058199;28;20037;-75
2022/12/07 02:09:04;;;;;;;13.43;3.53;;;;;;;2.88;100.00;101988.31;5057702;28;20040;-76
2022/12/07 02:11:29;;;;;;;8.18;2.90;;;;;;;2.79;100.00;101990.88;5065430;28;20289;-77
2022/12/07 02:13:55;;;;;;;9.18;2.88;;;;;;;2.76;100.00;101996.50;5064440;28;20392;-76
2022/12/07 02:16:38;;;;;;;7.38;3.20;;;;;;;2.73;100.00;101994.06;5061722;28;20051;-76
2022/12/07 02:19:23;;;;;;;10.38;3.22;;;;;;;2.75;100.00;101992.97;5064030;28;20074;-77
2022/12/07 02:21:58;;;;;;;14.48;3.00;;;;;;;2.73;100.00;101991.38;5062494;28;20045;-77
2022/12/07 02:24:44;;;;;;;8.25;3.67;;;;;;;2.84;100.00;101989.53;5045113;28;20505;-77
2022/12/07 02:27:43;;;;;;;11.32;3.40;;;;;;;2.92;100.00;101999.75;5064626;28;20025;-76
2022/12/07 02:30:32;;;;;;;13.60;3.33;;;;;;;2.97;100.00;101986.72;5064034;28;20052;-76
2022/12/07 02:33:14;;;;;;;10.60;3.60;;;;;;;3.14;100.00;101994.34;5061649;28;20028;-76
2022/12/07 02:35:41;;;;;;;10.75;4.00;;;;;;;3.20;100.00;101983.91;5061187;28;20021;-76
2022/12/07 02:38:09;;;;;;;15.57;3.30;;;;;;;3.16;100.00;101968.06;5064314;28;20048;-75
2022/12/07 02:40:40;;;;;;;8.00;2.85;;;;;;;3.12;100.00;101974.69;5060466;28;20033;-76
2022/12/07 02:43:25;;;;;;;20.08;3.50;;;;;;;3.00;100.00;101976.50;5083164;28;20035;-77
2022/12/07 02:45:57;;;;;;;6.82;3.20;;;;;;;2.95;100.00;101969.75;5065335;28;20036;-78
2022/12/07 02:48:24;;;;;;;10.98;3.20;;;;;;;2.88;100.00;101969.38;5063611;28;20288;-76
2022/12/07 02:50:51;;;;;;;11.20;3.00;;;;;;;2.79;100.00;101975.50;5058998;28;20024;-76
2022/12/07 02:53:37;;;;;;;;;;;;;;;2.70;100.00;101967.25;5068900;28;20115;-76
2022/12/07 02:56:27;;;;;;;10.18;3.20;;;;;;;2.53;100.00;101962.28;5065311;28;19912;-77
2022/12/07 02:59:17;;;;;;;11.38;3.58;;;;;;;2.37;100.00;101962.63;5066713;28;20056;-76
2022/12/07 03:02:10;;;;;;;11.90;3.20;;;;;;;2.32;100.00;101969.34;5059640;28;20028;-77
2022/12/07 03:04:56;;;;;;;6.75;2.95;;;;;;;2.24;100.00;101966.38;5062345;28;20029;-76
2022/12/07 03:07:32;;;;;;;9.82;3.30;;;;;;;2.26;100.00;101977.94;5053946;28;20048;-75
2022/12/07 03:10:03;;;;;;;13.60;3.80;;;;;;;2.45;100.00;101973.69;5063664;28;20460;-75
2022/12/07 03:12:36;;;;;;;11.35;4.25;;;;;;;2.61;100.00;101971.53;5066401;28;20028;-75
2022/12/07 03:15:10;;;;;;;18.52;4.22;;;;;;;2.74;100.00;101976.84;5058710;28;20118;-75
2022/12/07 03:17:40;;;;;;;13.50;3.83;;;;;;;2.82;100.00;101977.09;5059711;28;20105;-75
2022/12/07 03:20:09;;;;;;;15.18;4.22;;;;;;;2.77;100.00;101974.75;5055836;28;20033;-77
2022/12/07 03:22:38;;;;;;;13.00;4.00;;;;;;;2.77;100.00;101974.75;5052204;28;20043;-76
2022/12/07 03:25:07;;;;;;;9.40;3.33;;;;;;;2.75;100.00;101989.38;5057838;28;20031;-79
2022/12/07 03:27:42;;;;;;;8.57;3.38;;;;;;;2.72;100.00;101974.25;5064918;28;20032;-76
2022/12/07 03:30:18;;;;;;;7.05;3.53;;;;;;;2.68;100.00;101980.88;5058925;28;20071;-77
2022/12/07 03:33:03;;;;;;;8.55;3.33;;;;;;;2.64;100.00;101975.84;5055466;28;20545;-77
2022/12/07 03:35:34;;;;;;;5.78;3.45;;;;;;;2.59;100.00;101962.69;5062477;28;20082;-76
2022/12/07 03:38:24;;;;;;;8.52;3.72;;;;;;;2.60;100.00;101966.22;5054837;28;20443;-77
2022/12/07 03:41:00;;;;;;;7.55;3.95;;;;;;;2.56;100.00;101972.88;5063181;28;20025;-76
2022/12/07 03:43:28;;;;;;;11.52;3.55;;;;;;;2.53;100.00;101973.09;5065860;28;20085;-77
2022/12/07 03:46:09;;;;;;;9.75;3.90;;;;;;;2.59;100.00;101967.22;5062661;28;20583;-78
2022/12/07 03:48:55;;;;;;;6.68;3.30;;;;;;;2.57;100.00;101959.22;5067436;28;20024;-76
2022/12/07 03:51:38;;;;;;;20.67;4.78;;;;;;;2.69;100.00;101963.69;5063487;28;20024;-77
2022/12/07 03:54:24;;;;;;;13.85;3.58;;;;;;;2.77;100.00;101965.78;5050889;28;20024;-77
2022/12/07 03:56:51;;;;;;;16.02;3.75;;;;;;;2.82;100.00;101969.84;5065067;28;20035;-76
2022/12/07 03:59:18;;;;;;;8.23;3.33;;;;;;;2.84;100.00;101965.16;5070929;28;20109;-75
2022/12/07 04:01:50;;;;;;;8.93;3.10;;;;;;;2.85;100.00;101957.94;5062417;28;20025;-76
2022/12/07 04:04:16;;;;;;;12.35;4.50;;;;;;;2.81;100.00;101959.16;5061834;28;20040;-76
2022/12/07 04:06:42;;;;;;;11.85;3.42;;;;;;;2.77;100.00;101961.25;5058430;28;20545;-77
2022/12/07 04:09:07;;;;;;;12.93;3.60;;;;;;;2.79;100.00;101961.13;5070603;28;20116;-75
2022/12/07 04:11:32;;;;;;;5.28;3.90;;;;;;;2.72;100.00;101960.72;5070987;28;20025;-77
2022/12/07 04:16:42;;;;;;;9.10;3.95;;;;;;;2.59;100.00;101964.50;5063746;28;20055;-77
2022/12/07 04:19:08;;;;;;;6.38;3.25;;;;;;;2.54;100.00;101958.59;5068503;28;20029;-76
2022/12/07 04:21:34;;;;;;;8.68;2.90;;;;;;;2.51;100.00;101958.84;5063454;28;20040;-76
2022/12/07 04:23:59;;;;;;;6.93;3.33;;;;;;;2.51;100.00;101961.56;5052591;28;20048;-76
2022/12/07 04:26:24;;;;;;;16.63;3.97;;;;;;;2.49;100.00;101960.78;5060157;28;20551;-76
2022/12/07 04:28:50;;;;;;;12.07;3.25;;;;;;;2.46;100.00;101956.47;5062853;28;20031;-76
2022/12/07 04:31:16;;;;;;;10.52;3.85;;;;;;;2.41;100.00;101955.13;5067854;28;20044;-75
2022/12/07 04:33:42;;;;;;;8.10;2.60;;;;;;;2.31;100.00;101956.81;5064599;28;20032;-76
2022/12/07 04:36:07;;;;;;;12.23;3.38;;;;;;;2.25;100.00;101950.03;5068781;28;20032;-77
2022/12/07 04:38:32;;;;;;;8.60;3.70;;;;;;;2.16;100.00;101947.16;5055342;28;20174;-76
2022/12/07 04:41:04;;;;;;;5.95;3.03;;;;;;;2.08;100.00;101942.34;5060545;28;20028;-76
2022/12/07 04:43:30;;;;;;;11.75;3.10;;;;;;;2.05;100.00;101942.59;5065851;28;20016;-76
2022/12/07 04:45:55;;;;;;;7.50;3.05;;;;;;;2.01;100.00;101940.22;5070089;28;20028;-76
2022/12/07 04:48:20;;;;;;;4.60;2.85;;;;;;;2.03;100.00;101939.13;5061203;28;20037;-77
2022/12/07 04:50:48;;;;;;;10.57;3.00;;;;;;;2.07;100.00;101942.47;5058216;28;20411;-75
2022/12/07 04:53:13;;;;;;;7.53;2.95;;;;;;;2.12;100.00;101933.03;5062852;28;20017;-77
2022/12/07 04:55:39;;;;;;;8.52;3.15;;;;;;;2.09;100.00;101952.16;5062021;28;20082;-77
2022/12/07 04:58:04;;;;;;;9.90;4.05;;;;;;;2.19;100.00;101939.69;5067547;28;20024;-76
2022/12/07 05:00:29;;;;;;;12.27;3.05;;;;;;;2.35;100.00;101928.59;5064303;28;20107;-75
2022/12/07 05:02:55;;;;;;;14.57;3.78;;;;;;;2.35;100.00;101917.78;5066949;28;20028;-76
2022/12/07 05:05:20;;;;;;;12.77;3.95;;;;;;;2.27;100.00;101917.47;5060825;28;20024;-77
2022/12/07 05:07:46;;;;;;;10.25;3.53;;;;;;;2.26;100.00;101924.72;5058883;28;20490;-76
2022/12/07 05:10:11;;;;;;;10.27;3.55;;;;;;;2.16;100.00;101920.16;5060596;28;20025;-74
2022/12/07 05:12:36;;;;;;;5.00;3.03;;;;;;;2.05;100.00;101918.28;5070468;28;20067;-75
2022/12/07 05:15:02;;;;;;;9.52;4.13;;;;;;;1.97;100.00;101915.28;5063151;28;20045;-77
2022/12/07 05:17:27;;;;;;;13.30;3.35;;;;;;;1.89;100.00;101922.25;5064182;28;20085;-75
2022/12/07 05:19:52;;;;;;;6.30;3.30;;;;;;;1.81;100.00;101928.22;5063002;28;20036;-77
2022/12/07 05:22:18;;;;;;;14.68;3.20;;;;;;;1.77;100.00;101933.97;5056091;28;20032;-77
2022/12/07 05:24:43;;;;;;;9.35;3.50;;;;;;;1.69;100.00;101933.69;5067274;28;20081;-77
2022/12/07 05:27:08;;;;;;;6.35;2.88;;;;;;;1.67;100.00;101935.63;5069579;28;20028;-77
2022/12/07 05:29:34;;;;;;;10.73;3.47;;;;;;;1.63;100.00;101935.00;5067067;28;20032;-76
2022/12/07 05:31:59;;;;;;;7.47;3.40;;;;;;;1.61;100.00;101936.09;5066811;28;20387;-77
2022/12/07 05:34:25;;;;;;;9.48;3.40;;;;;;;1.59;100.00;101936.22;5063655;28;20024;-77
2022/12/07 05:36:50;;;;;;;5.65;3.03;;;;;;;1.50;100.00;101928.78;5061394;28;20056;-77
2022/12/07 05:39:15;;;;;;;9.73;3.45;;;;;;;1.48;100.00;101932.56;5064417;28;20305;-78
2022/12/07 05:44:25;;;;;;;5.82;3.58;;;;;;;1.42;100.00;101924.91;5068035;28;20039;-75
2022/12/07 05:46:50;;;;;;;9.63;3.47;;;;;;;1.43;100.00;101932.91;5067390;28;20415;-77
2022/12/07 05:49:16;;;;;;;5.90;3.28;;;;;;;1.35;100.00;101932.59;5064048;28;20119;-77
2022/12/07 05:51:41;;;;;;;11.05;3.38;;;;;;;1.33;100.00;101925.59;5063505;28;20029;-77
2022/12/07 05:54:07;;;;;;;7.47;3.45;;;;;;;1.28;100.00;101928.63;5060557;28;20170;-76
2022/12/07 05:56:32;;;;;;;6.93;3.15;;;;;;;1.23;100.00;101927.25;5063220;28;20075;-75
2022/12/07 06:01:41;;;;;;;9.25;3.70;;;;;;;1.15;100.00;101922.41;5055619;28;20507;-76
2022/12/07 06:04:07;;;;;;;6.13;3.30;;;;;;;1.12;100.00;101927.19;5061202;28;20021;-76
2022/12/07 06:06:33;;;;;;;9.45;3.55;;;;;;;1.13;100.00;101926.19;5058975;28;20052;-76
2022/12/07 06:08:58;;;;;;;10.23;3.17;;;;;;;1.11;100.00;101930.81;5064605;28;20115;-77
2022/12/07 06:14:07;;;;;;;7.05;3.03;;;;;;;1.00;100.00;101925.34;5058977;28;20464;-74
2022/12/07 06:16:33;;;;;;;8.15;3.08;;;;;;;0.97;100.00;101921.03;5063639;28;20132;-76
2022/12/07 06:18:58;;;;;;;10.70;3.15;;;;;;;0.97;100.00;101921.03;5063389;28;20051;-76
2022/12/07 06:21:25;;;;;;;11.40;3.35;;;;;;;0.97;100.00;101921.03;5060662;28;20026;-75
2022/12/07 06:23:50;;;;;;;;;;;;;;;0.95;100.00;101917.59;5067225;28;20758;-77
2022/12/07 06:26:16;;;;;;;5.72;3.42;;;;;;;0.95;100.00;101920.28;5057294;28;19930;-76
2022/12/07 06:28:41;;;;;;;7.18;3.20;;;;;;;0.97;100.00;101918.34;5064637;28;20031;-76
2022/12/07 06:31:07;;;;;;;6.82;3.50;;;;;;;0.96;100.00;101918.47;5065242;28;20024;-76
2022/12/07 06:33:33;;;;;;;8.95;4.05;;;;;;;0.96;100.00;101922.00;5063995;28;20479;-75
2022/12/07 06:35:58;;;;;;;14.23;3.95;;;;;;;1.00;100.00;101926.22;5058137;28;20029;-75
2022/12/07 06:38:25;;;;;;;12.07;4.20;;;;;;;0.98;100.00;101928.13;5060388;28;20387;-76
2022/12/07 06:40:50;;;;;;;8.13;4.35;;;;;;;1.00;100.00;101934.31;5059945;28;20413;-75
2022/12/07 06:43:16;;;;;;;16.30;4.25;;;;;;;1.02;100.00;101928.81;5068031;28;20046;-75
2022/12/07 06:45:42;;;;;;;15.32;4.55;;;;;;;0.99;100.00;101929.00;5065697;28;20032;-76
2022/12/07 06:48:07;;;;;;;11.57;4.53;;;;;;;0.98;100.00;101930.84;5063325;28;20038;-74
2022/12/07 06:50:32;;;;;;;12.02;4.72;;;;;;;0.97;100.00;101939.06;5068555;28;20029;-74
2022/12/07 06:52:58;;;;;;;11.73;4.05;;;;;;;0.96;100.00;101945.44;5060908;28;20027;-76
2022/12/07 06:55:23;;;;;;;12.05;4.13;;;;;;;0.91;100.00;101936.81;5056923;28;20029;-76
2022/12/07 06:57:48;;;;;;;11.38;4.65;;;;;;;0.83;100.00;101931.97;5062297;28;20150;-75
2022/12/07 07:00:14;;;;;;;15.00;4.28;;;;;;;0.82;100.00;101932.06;5061218;28;20021;-76
2022/12/07 07:02:40;;;;;;;8.77;4.13;;;;;;;0.75;100.00;101938.88;5065248;28;20028;-76
2022/12/07 07:05:05;;;;;;;12.48;4.82;;;;;;;0.73;100.00;101935.38;5061046;28;20442;-76
2022/12/07 07:07:31;;;;;;;7.55;4.43;;;;;;;0.73;100.00;101938.09;5071915;28;20120;-75
2022/12/07 07:09:56;;;;;;;12.30;5.10;;;;;;;0.66;100.00;101934.94;5061606;28;20033;-74
2022/12/07 07:12:21;;;;;;;15.07;5.03;;;;;;;0.65;100.00;101932.41;5069703;28;20021;-74
2022/12/07 07:14:47;;;;;;;13.60;5.00;;;;;;;0.64;100.00;101927.97;5065843;28;20561;-75
2022/12/07 07:17:12;;;;;;;12.98;5.97;;;;;;;0.57;100.00;101932.06;5066979;28;20047;-76
2022/12/07 07:19:38;;;;;;;12.73;4.75;;;;;;;0.57;100.00;101932.06;5059862;28;20074;-76
2022/12/07 07:22:03;;;;;;;13.73;6.13;;;;;;;0.61;100.00;101930.88;5071537;28;20025;-74
2022/12/07 07:24:29;;;;;;;9.43;5.57;;;;;;;0.59;100.00;101932.81;5057848;28;20032;-75
2022/12/07 07:26:54;;;;;;;11.63;4.90;;;;;;;0.58;100.00;101933.75;5059201;28;20442;-76
2022/12/07 07:29:20;;;;;;;13.32;4.85;;;;;;;0.61;100.00;101936.25;5062867;28;20474;-74
2022/12/07 07:31:45;;;;;;;13.00;5.00;;;;;;;0.67;100.00;101936.72;5072598;28;20075;-76
2022/12/07 07:34:10;;;;;;;7.95;4.95;;;;;;;0.75;100.00;101944.25;5065494;28;20093;-75
2022/12/07 07:36:36;;;;;;;16.00;5.40;;;;;;;0.82;100.00;101951.78;5059742;28;20087;-74
2022/12/07 07:39:01;;;;;;;10.95;5.40;;;;;;;1.16;100.00;101945.72;5076002;28;20533;-76
2022/12/07 07:41:26;;;;;;;22.85;7.70;;;;;;;1.21;100.00;101948.94;5059584;28;20548;-74
2022/12/07 07:43:52;;;;;;;16.45;6.90;;;;;;;1.21;100.00;101938.16;5058245;28;20060;-76
2022/12/07 07:46:17;;;;;;;22.33;6.65;;;;;;;1.27;100.00;101935.00;5061591;28;20078;-75
2022/12/07 07:48:42;;;;;;;19.25;7.03;;;;;;;1.29;100.00;101945.69;5064228;28;20028;-76
2022/12/07 07:51:08;;;;;;;16.50;6.13;;;;;;;1.28;100.00;101941.28;5063708;28;20025;-75
2022/12/07 07:53:33;;;;;;;16.65;6.60;;;;;;;1.22;100.00;101941.69;5062192;28;20127;-75
2022/12/07 07:55:59;;;;;;;18.27;6.28;;;;;;;1.12;100.00;101935.28;5055782;28;20056;-74
2022/12/07 07:58:24;;;;;;;12.38;6.32;;;;;;;1.13;100.00;101940.53;5059582;28;20040;-74
2022/12/07 08:00:49;;;;;;;14.25;5.63;;;;;;;1.13;100.00;101939.69;5057929;28;20468;-74
2022/12/07 08:03:15;;;;;;;18.20;6.15;;;;;;;1.11;100.00;101944.31;5065016;28;20462;-76
2022/12/07 08:05:40;;;;;;;16.83;6.18;;;;;;;1.06;100.00;101941.94;5058943;28;20450;-75
2022/12/07 08:08:06;;;;;;;16.95;5.88;;;;;;;1.04;100.00;101945.72;5059899;28;20036;-75
2022/12/07 08:10:31;;;;;;;23.55;6.18;;;;;;;1.07;100.00;101945.53;5059604;28;20060;-74
2022/12/07 08:13:16;;;;;;;14.65;6.15;;;;;;;1.10;100.00;101945.28;5060118;28;20051;-75
2022/12/07 08:15:44;;;;;;;15.48;6.38;;;;;;;1.18;100.00;101948.31;5056324;28;20052;-76
2022/12/07 08:18:10;;;;;;;19.20;7.20;;;;;;;1.24;100.00;101947.88;5063842;28;20084;-75
2022/12/07 08:20:37;;;;;;;9.00;6.40;;;;;;;1.27;100.00;101945.81;5053817;28;20528;-75
2022/12/07 08:23:03;;;;;;;13.40;6.57;;;;;;;1.26;100.00;101952.19;5062743;28;20075;-75
2022/12/07 08:25:29;;;;;;;10.10;6.00;;;;;;;1.24;100.00;101947.88;5063408;28;20028;-75
2022/12/07 08:27:55;;;;;;;11.98;6.50;;;;;;;1.19;100.00;101948.19;5058248;28;20032;-75
2022/12/07 08:30:20;;;;;;;9.95;5.85;;;;;;;1.18;100.00;101942.91;5059153;28;20032;-75
2022/12/07 08:32:47;;;;;;;17.27;6.22;;;;;;;1.21;100.00;101942.69;5055732;28;20693;-75
2022/12/07 08:35:13;;;;;;;18.50;6.55;;;;;;;1.23;100.00;101956.94;5059801;28;20029;-74
2022/12/07 08:37:38;;;;;;;11.77;5.43;;;;;;;1.26;100.00;101951.31;5058570;28;20032;-74
2022/12/07 08:40:05;;;;;;;13.85;6.00;;;;;;;1.30;100.00;101961.75;5056096;28;20472;-73
2022/12/07 08:42:37;;;;;;;11.13;5.68;;;;;;;1.41;100.00;101966.38;5057919;28;20495;-74
2022/12/07 08:45:08;;;;;;;16.95;6.65;;;;;;;1.51;100.00;101964.75;5054753;28;20032;-75
2022/12/07 08:47:37;;;;;;;25.40;6.50;;;;;;;1.63;100.00;101961.13;5058212;28;20070;-74
2022/12/07 08:50:04;;;;;;;20.40;6.35;;;;;;;1.76;100.00;101952.00;5057808;28;20032;-75
2022/12/07 08:52:31;;;;;;;16.98;6.22;;;;;;;1.82;100.00;101951.56;5062784;28;20054;-75
2022/12/07 08:54:58;;;;;;;18.35;6.32;;;;;;;1.87;100.00;101953.94;5058631;28;20036;-75
2022/12/07 08:57:23;;;;;;;23.27;6.75;;;;;;;1.91;100.00;101945.47;5052325;28;20025;-74
2022/12/07 08:59:48;;;;;;;26.58;6.53;;;;;;;1.89;100.00;101950.13;5056869;28;20047;-74
2022/12/07 09:02:14;;;;;;;18.48;6.20;;;;;;;1.85;100.00;101945.06;5057290;28;20567;-76
2022/12/07 09:04:39;;;;;;;20.13;6.80;;;;;;;1.80;100.00;101953.50;5060341;28;20115;-75
2022/12/07 09:07:05;;;;;;;22.08;7.00;;;;;;;1.81;100.00;101951.66;5058129;28;20044;-75
2022/12/07 09:09:31;;;;;;;16.75;6.22;;;;;;;1.82;100.00;101950.72;5051785;28;20044;-75
2022/12/07 09:11:56;;;;;;;17.48;6.25;;;;;;;1.84;100.00;101951.44;5061548;28;20029;-74
2022/12/07 09:14:22;;;;;;;23.92;6.07;;;;;;;1.92;100.00;101952.59;5053585;28;20048;-75
2022/12/07 09:16:47;;;;;;;17.00;6.18;;;;;;;1.93;100.00;101951.59;5055984;28;20031;-75
2022/12/07 09:19:13;;;;;;;18.23;5.85;;;;;;;1.98;100.00;101943.19;5051630;28;20036;-76
2022/12/07 09:21:38;;;;;;;17.10;5.00;;;;;;;2.05;100.00;101948.00;5054898;28;20024;-76
2022/12/07 09:24:04;;;;;;;22.73;5.50;;;;;;;2.11;100.00;101942.13;5053386;28;20032;-77
2022/12/07 09:26:29;;;;;;;16.73;4.60;;;;;;;2.21;100.00;101943.16;5055980;28;20448;-76
2022/12/07 09:28:54;;;;;;;21.83;4.60;;;;;;;2.30;100.00;101944.28;5054332;28;20163;-77
2022/12/07 09:31:20;;;;;;;22.75;9.07;;;;;;;2.38;100.00;101936.44;5057497;28;20073;-77
2022/12/07 09:33:45;;;;;;;16.52;8.23;;;;;;;2.50;100.00;101938.19;5057402;28;20016;-77
2022/12/07 09:36:10;;;;;;;18.45;6.32;;;;;;;2.66;100.00;101939.59;5054256;28;20094;-76
2022/12/07 09:38:36;;;;;;;13.98;5.43;;;;;;;2.74;100.00;101938.97;5052523;28;20068;-77
2022/12/07 09:41:07;;;;;;;15.85;5.65;;;;;;;2.79;100.00;101934.91;5055925;28;20040;-76
2022/12/07 09:43:35;;;;;;;19.25;4.95;;;;;;;2.88;100.00;101942.31;5049804;28;20032;-76
2022/12/07 09:46:01;;;;;;;11.30;5.13;;;;;;;3.00;100.00;101937.78;5053991;28;20036;-76
2022/12/07 09:48:38;;;;;;;14.55;4.88;;;;;;;3.05;100.00;101936.41;5054863;28;20029;-76
2022/12/07 09:51:14;;;;;;;19.05;5.78;;;;;;;3.21;100.00;101941.47;5052023;28;20086;-76
2022/12/07 09:53:41;;;;;;;9.45;4.72;;;;;;;3.37;100.00;101947.38;5059311;28;20021;-76
2022/12/07 09:56:11;;;;;;;19.58;6.18;;;;;;;3.64;100.00;101947.81;5061382;28;20033;-77
2022/12/07 09:58:38;;;;;;;26.02;5.28;;;;;;;3.81;100.00;101956.28;5059850;28;20050;-76
2022/12/07 10:01:09;;;;;;;32.30;7.18;;;;;;;4.02;100.00;101956.34;5065011;28;20039;-78
2022/12/07 10:03:37;;;;;;;23.23;5.65;;;;;;;4.12;100.00;101952.72;5062173;28;20471;-76
2022/12/07 10:06:05;;;;;;;10.85;4.60;;;;;;;4.14;100.00;101949.88;5061188;28;20063;-77
2022/12/07 10:08:30;;;;;;;18.70;4.85;;;;;;;4.19;100.00;101943.09;5060483;28;20060;-76
2022/12/07 10:10:56;;;;;;;19.55;5.15;;;;;;;4.22;100.00;101937.41;5058466;28;20439;-77
2022/12/07 10:13:49;;;;;;;17.77;4.28;;;;;;;4.28;100.00;101934.16;5068777;28;20032;-77
2022/12/07 10:16:23;;;;;;;13.45;4.07;;;;;;;4.29;100.00;101937.75;5053268;28;20073;-77
2022/12/07 10:18:48;;;;;;;20.95;4.82;;;;;;;4.30;100.00;101934.91;5050368;28;20099;-75
2022/12/07 10:21:17;;;;;;;14.05;4.80;;;;;;;4.31;100.00;101936.63;5056596;28;20132;-77
2022/12/07 10:24:02;;;;;;;17.65;5.28;;;;;;;4.40;100.00;101929.56;5062709;28;20033;-76
2022/12/07 10:26:33;;;;;;;33.15;6.07;;;;;;;4.50;100.00;101920.47;5067449;28;20044;-75
2022/12/07 10:29:01;;;;;;;23.90;5.93;;;;;;;4.56;100.00;101919.09;5061765;28;20079;-77
2022/12/07 10:31:26;;;;;;;15.43;4.88;;;;;;;4.68;100.00;101921.63;5064736;28;20055;-74
2022/12/07 10:33:55;;;;;;;17.38;6.20;;;;;;;4.66;100.00;101915.44;5060251;28;20119;-77
2022/12/07 10:36:37;;;;;;;13.82;5.00;;;;;;;4.65;100.00;101915.59;5069444;28;20089;-77
2022/12/07 10:39:22;;;;;;;15.85;5.45;;;;;;;4.69;100.00;101914.31;5059328;28;20025;-75
2022/12/07 10:41:59;;;;;;;9.82;5.28;;;;;;;4.78;100.00;101908.97;5063782;28;20388;-77
2022/12/07 10:44:34;;;;;;;15.13;6.10;;;;;;;4.99;100.00;101909.78;5060459;28;20029;-77
2022/12/07 10:47:14;;;;;;;18.90;5.57;;;;;;;5.07;100.00;101911.84;5065581;28;20028;-77
2022/12/07 10:50:02;;;;;;;14.50;4.78;;;;;;;5.28;100.00;101904.50;5061536;28;20195;-77
2022/12/07 10:52:32;;;;;;;23.75;5.18;;;;;;;5.47;100.00;101901.81;5058461;28;20454;-75
2022/12/07 10:55:15;;;;;;;23.17;5.57;;;;;;;5.60;100.00;101903.28;5060058;28;20029;-75
2022/12/07 10:57:49;;;;;;;23.58;5.53;;;;;;;5.84;100.00;101897.50;5059824;28;20025;-76
2022/12/07 11:00:22;;;;;;;10.82;4.22;;;;;;;5.96;100.00;101885.47;5067179;28;20499;-76
2022/12/07 11:03:17;;;;;;;13.65;4.82;;;;;;;5.91;100.00;101885.03;5056308;28;20087;-76
2022/12/07 11:06:07;;;;;;;16.65;4.25;;;;;;;5.72;100.00;101877.69;5060040;28;20464;-77
2022/12/07 11:08:38;;;;;;;18.58;4.93;;;;;;;5.66;100.00;101871.97;5062862;28;20025;-76
2022/12/07 11:11:15;;;;;;;17.58;5.80;;;;;;;5.74;100.00;101861.25;5069007;28;20464;-75
2022/12/07 11:14:01;;;;;;;11.23;5.10;;;;;;;5.76;100.00;101868.25;5067847;28;20028;-78
2022/12/07 11:16:57;;;;;;;14.32;5.95;;;;;;;5.76;100.00;101865.53;5071496;28;20052;-75
2022/12/07 11:19:25;;;;;;;12.52;4.82;;;;;;;5.99;100.00;101871.59;5066521;28;20033;-76
2022/12/07 11:21:58;;;;;;;13.40;3.10;;;;;;;6.14;100.00;101859.31;5068887;28;20029;-77
2022/12/07 11:24:41;;;;;;;8.20;1.80;;;;;;;6.18;99.89;101850.69;5061879;28;20025;-74
2022/12/07 11:27:18;;;;;;;12.63;2.05;;;;;;;6.19;100.00;101863.28;5054715;28;20039;-76
2022/12/07 11:30:01;;;;;;;13.68;2.30;;;;;;;6.14;99.77;101856.59;5059765;28;20447;-78
2022/12/07 11:32:39;;;;;;;24.70;2.80;;;;;;;6.13;100.00;101854.84;5060924;28;20078;-77
2022/12/07 11:35:43;;;;;;;8.40;2.72;;;;;;;6.18;100.00;101847.09;5058393;28;20586;-75
2022/12/07 11:38:17;;;;;;;10.30;2.50;;;;;;;6.21;100.00;101844.09;5068714;28;20055;-76
2022/12/07 11:40:48;;;;;;;11.93;2.03;;;;;;;6.16;100.00;101833.69;5073597;28;20444;-77
2022/12/07 11:43:34;;;;;;;8.15;2.05;;;;;;;6.12;100.00;101828.66;5070919;28;20101;-77